Terminal Aerodrome Forecast
Issued by NWS

Home | Current Version | Previous Version | Graphics & Text | Print | Product List | Glossary On
Versions: 1 2 3 4 5 6 7 8 9 10 11 12 13 14 15 16
000
FTUS43 KGRB 210500
TAFATW
TAF
KATW 210520Z 2106/2206 VRB03KT 5SM BR SCT025 BKN060
      TEMPO 2106/2109 1SM -SHRA BR BKN025
     FM210900 VRB03KT 3SM BR SCT018 OVC050
      TEMPO 2109/2113 3/4SM -SHRA BR BKN018
     FM211500 16004KT 4SM BR BKN020 BKN040
     FM211700 VRB03KT 6SM -SHRA BR BKN020 BKN040
      TEMPO 2117/2121 1SM -TSRA BR BKN020CB
     FM212300 32009KT P6SM SCT020 BKN040
     FM220200 33011G20KT P6SM SCT040 SCT090=

USA.gov is the U.S. government's official web portal to all federal, state and local government web resources and services.